Carmelia — 5BUA4 — position and weather

sailwx.info

Track history (hours):
 
Tides and Currents Weather Stations Pressure Air Temp Water Temp Dewpoint Dewpoint Depression Visibility Wind Speed Wind Dir Waves Ship Positions

Carmelia

Last reported at 2018-Feb-23 08:52 UTC. Time now 2018-Feb-23 20:39 UTC.
Position N 32°51' E 035°01'.

Length 100 m; draft 5.2 m.

Type: Tanker. MMSI: 209048000.

Date/timePositionNaut miles runAvg speedWind from/ knotsBaromVisibWave heightAir tempDewpointWater temp
2018-Feb-23 08:52N 32°51' E 035°01'2 4.1
2018-Feb-23 08:30N 32°52' E 034°60'4 2.5
2018-Feb-23 06:59N 32°53' E 034°56'5 9.3
2018-Feb-23 06:30N 32°54' E 034°51'5 9.3
2018-Feb-23 06:00N 32°54' E 034°45'5 9.6
2018-Feb-23 05:30N 32°55' E 034°39'5 9.7
2018-Feb-23 05:00N 32°56' E 034°34'127 9.7
2018-Feb-22 15:51N 34°39' E 033°04'1 1.6
2018-Feb-22 15:12N 34°40' E 033°04'0 0.0
2018-Feb-22 14:57N 34°40' E 033°04'0 0.0
2018-Feb-22 14:27N 34°40' E 033°04'0 0.0
2018-Feb-22 14:00N 34°40' E 033°04'0 0.0
2018-Feb-22 12:15N 34°40' E 033°04'0 0.0
2018-Feb-22 11:57N 34°40' E 033°04'0 0.0
2018-Feb-22 11:30N 34°40' E 033°04'0 0.0
2018-Feb-22 11:00N 34°40' E 033°04'0 0.0
2018-Feb-22 10:27N 34°40' E 033°04'0 0.0
2018-Feb-22 10:00N 34°40' E 033°04'0 0.0
2018-Feb-22 09:30N 34°40' E 033°04'0 0.0
2018-Feb-22 09:00N 34°40' E 033°04'0 0.0
2018-Feb-22 08:24N 34°40' E 033°04'0 0.0
2018-Feb-22 08:00N 34°40' E 033°04'0 0.0
2018-Feb-22 07:09N 34°40' E 033°04'0 0.0
2018-Feb-22 06:57N 34°40' E 033°04'0 0.0
2018-Feb-22 06:21N 34°40' E 033°04'0 0.0
2018-Feb-22 06:00N 34°40' E 033°04'0 0.0
2018-Feb-22 02:15N 34°40' E 033°04'0 0.0
2018-Feb-22 02:00N 34°40' E 033°04'0 0.0
2018-Feb-22 01:30N 34°40' E 033°04'0 0.0
2018-Feb-22 00:57N 34°40' E 033°04'0 0.0
2018-Feb-22 00:27N 34°40' E 033°04'0 0.0
2018-Feb-21 23:54N 34°40' E 033°04'0 0.0
2018-Feb-21 21:36N 34°40' E 033°04'0 0.0
2018-Feb-21 21:24N 34°40' E 033°04'0 0.0
2018-Feb-21 21:00N 34°40' E 033°04'0 0.0
2018-Feb-21 20:15N 34°40' E 033°04'0 0.0
2018-Feb-21 18:15N 34°40' E 033°04'0 0.1
2018-Feb-21 18:00N 34°40' E 033°04'0 0.0
2018-Feb-21 17:21N 34°40' E 033°04'0 0.0
2018-Feb-21 08:45N 34°40' E 033°04'0 0.1
2018-Feb-21 07:39N 34°40' E 033°04'0 0.1
2018-Feb-21 07:24N 34°40' E 033°04'0 0.0
2018-Feb-21 06:51N 34°40' E 033°04'0 0.0
2018-Feb-20 19:00N 34°40' E 033°04'0 0.0
2018-Feb-20 17:59N 34°40' E 033°04'0 0.0
2018-Feb-20 14:23N 34°40' E 033°04'0 0.0
2018-Feb-20 11:23N 34°40' E 033°04'0 0.0
2018-Feb-20 10:59N 34°40' E 033°04'0 0.0
2018-Feb-20 10:29N 34°40' E 033°04'0 0.0
2018-Feb-20 08:59N 34°40' E 033°04'0 0.0
2018-Feb-20 08:29N 34°40' E 033°04'0 0.0
2018-Feb-20 07:56N 34°40' E 033°04'0 0.0
2018-Feb-20 05:26N 34°40' E 033°04'0 0.0
2018-Feb-20 04:53N 34°40' E 033°04'0 0.0
2018-Feb-19 20:47N 34°40' E 033°04'0 0.0
2018-Feb-19 19:17N 34°40' E 033°04'0 0.0
2018-Feb-19 18:56N 34°40' E 033°04'0 0.0
2018-Feb-19 18:23N 34°40' E 033°04'0 0.0
2018-Feb-19 17:56N 34°40' E 033°04'0 0.1
2018-Feb-19 17:29N 34°40' E 033°04'0 0.0
2018-Feb-19 07:23N 34°40' E 033°04'0 0.0
2018-Feb-19 06:53N 34°40' E 033°04'0 0.0
2018-Feb-19 06:26N 34°40' E 033°04'0 0.0
2018-Feb-19 05:32N 34°40' E 033°04'0 0.1
2018-Feb-19 05:29N 34°40' E 033°04'0 0.0
2018-Feb-19 04:59N 34°40' E 033°04'0 0.0
2018-Feb-19 02:11N 34°40' E 033°04'0 0.0
2018-Feb-19 01:53N 34°40' E 033°04'0 0.0
2018-Feb-19 00:41N 34°40' E 033°04'0 0.1
2018-Feb-19 00:14N 34°40' E 033°04'0 0.0
2018-Feb-18 23:59N 34°40' E 033°04'0 0.0
2018-Feb-18 23:29N 34°40' E 033°04'0 0.0
2018-Feb-18 22:56N 34°40' E 033°04'0 0.0
2018-Feb-18 22:29N 34°40' E 033°04'0 0.0
2018-Feb-18 21:53N 34°40' E 033°04'0 0.1
2018-Feb-18 21:29N 34°40' E 033°04'0 0.0
2018-Feb-18 20:50N 34°40' E 033°04'0 0.0
2018-Feb-18 20:26N 34°40' E 033°04'0 0.0
2018-Feb-18 19:14N 34°40' E 033°04'0 0.0
2018-Feb-18 18:56N 34°40' E 033°04'0 0.1
2018-Feb-18 17:29N 34°40' E 033°04'0 0.0
2018-Feb-18 11:29N 34°40' E 033°04'0 0.0
2018-Feb-18 08:38N 34°40' E 033°04'0 0.6
2018-Feb-18 08:30N 34°40' E 033°04'385 8.6
2018-Feb-16 11:40N 37°27' E 025°56'210.9
2018-Feb-16 11:30N 37°29' E 025°55'510.6
2018-Feb-16 11:00N 37°34' E 025°54'384 8.5
2018-Feb-14 14:01N 43°33' E 028°52'1 8.3
2018-Feb-14 13:55N 43°34' E 028°52'3 8.0
2018-Feb-14 13:30N 43°37' E 028°51'4 8.0
2018-Feb-14 13:00N 43°41' E 028°51'4 7.9
2018-Feb-14 12:30N 43°45' E 028°51'4 7.2
2018-Feb-14 12:00N 43°49' E 028°50'4 7.0
2018-Feb-14 11:30N 43°52' E 028°50'3 6.9
2018-Feb-14 11:00N 43°56' E 028°49'3 7.0
2018-Feb-14 10:30N 43°59' E 028°48'4 7.1
2018-Feb-14 10:00N 44°02' E 028°45'3 6.9
2018-Feb-14 09:30N 44°05' E 028°43'3 5.9
2018-Feb-14 09:00N 44°08' E 028°41'1 2.7
2018-Feb-14 08:28N 44°09' E 028°40'0 0.0
2018-Feb-14 08:00N 44°09' E 028°40'0 0.0
2018-Feb-14 07:29N 44°09' E 028°40'0 0.0
2018-Feb-14 06:59N 44°09' E 028°40'0 0.0
2018-Feb-14 06:29N 44°09' E 028°40'0 0.0
2018-Feb-14 05:59N 44°09' E 028°40'0 0.0
2018-Feb-14 05:29N 44°09' E 028°40'0 0.0
2018-Feb-14 04:59N 44°09' E 028°40'0 0.0
2018-Feb-14 04:29N 44°09' E 028°40'0 0.0
2018-Feb-14 03:59N 44°09' E 028°40'0 0.0
2018-Feb-14 03:26N 44°09' E 028°40'0 0.0
2018-Feb-14 02:59N 44°09' E 028°40'0 0.0
2018-Feb-14 02:29N 44°09' E 028°40'0 0.0
2018-Feb-14 01:59N 44°09' E 028°40'0 0.0
2018-Feb-14 01:29N 44°09' E 028°40'0 0.0
2018-Feb-14 00:56N 44°09' E 028°40'0 0.0
2018-Feb-14 00:29N 44°09' E 028°40'0 0.0
2018-Feb-13 23:59N 44°09' E 028°40'0 0.0
2018-Feb-13 23:29N 44°09' E 028°40'0 0.0
2018-Feb-13 22:59N 44°09' E 028°40'0 0.0
2018-Feb-13 22:29N 44°09' E 028°40'0 0.0
2018-Feb-13 21:59N 44°09' E 028°40'0 0.0
2018-Feb-13 21:29N 44°09' E 028°40'0 0.0
2018-Feb-13 20:59N 44°09' E 028°40'0 0.0
2018-Feb-13 20:29N 44°09' E 028°40'0 0.0
2018-Feb-13 19:59N 44°09' E 028°40'0 0.0
2018-Feb-13 19:29N 44°09' E 028°40'0 0.0
2018-Feb-13 18:59N 44°09' E 028°40'0 0.0
2018-Feb-13 18:29N 44°09' E 028°40'0 0.0
2018-Feb-13 17:59N 44°09' E 028°40'0 0.0
2018-Feb-13 17:29N 44°09' E 028°40'0 0.0
2018-Feb-13 16:59N 44°09' E 028°40'0 0.0
2018-Feb-13 16:29N 44°09' E 028°40'0 0.0
2018-Feb-13 15:59N 44°09' E 028°40'0 0.0
2018-Feb-13 15:29N 44°09' E 028°40'0 0.0
2018-Feb-13 14:59N 44°09' E 028°40'0 0.0
2018-Feb-13 14:29N 44°09' E 028°40'0 0.0
2018-Feb-13 13:59N 44°09' E 028°40'0 0.0
2018-Feb-13 13:29N 44°09' E 028°40'0 0.0
2018-Feb-13 12:59N 44°09' E 028°40'0 0.0
2018-Feb-13 12:29N 44°09' E 028°40'0 0.0
2018-Feb-13 11:56N 44°09' E 028°40'0 0.0
2018-Feb-13 11:29N 44°09' E 028°40'0 0.0
2018-Feb-13 10:59N 44°09' E 028°40'0 0.0
2018-Feb-13 10:29N 44°09' E 028°40'0 0.0
2018-Feb-13 09:59N 44°09' E 028°40'0 0.0
2018-Feb-13 09:29N 44°09' E 028°40'0 0.0
2018-Feb-13 08:59N 44°09' E 028°40'  
Track history (hours):
 
Tides and Currents Weather Stations Pressure Air Temp Water Temp Dewpoint Dewpoint Depression Visibility Wind Speed Wind Dir Waves Ship Positions

Carmelia

Last reported at 2018-Feb-23 08:52 UTC. Time now 2018-Feb-23 20:39 UTC.
Position N 32°51' E 035°01'.

Length 100 m; draft 5.2 m.

Type: Tanker. MMSI: 209048000.

Date/timePositionNaut miles runAvg speedWind from/ knotsBaromVisibWave heightAir tempDewpointWater temp
2018-Feb-23 08:52N 32°51' E 035°01'2 4.1
2018-Feb-23 08:30N 32°52' E 034°60'4 2.5
2018-Feb-23 06:59N 32°53' E 034°56'5 9.3
2018-Feb-23 06:30N 32°54' E 034°51'5 9.3
2018-Feb-23 06:00N 32°54' E 034°45'5 9.6
2018-Feb-23 05:30N 32°55' E 034°39'5 9.7
2018-Feb-23 05:00N 32°56' E 034°34'127 9.7
2018-Feb-22 15:51N 34°39' E 033°04'1 1.6
2018-Feb-22 15:12N 34°40' E 033°04'0 0.0
2018-Feb-22 14:57N 34°40' E 033°04'0 0.0
2018-Feb-22 14:27N 34°40' E 033°04'0 0.0
2018-Feb-22 14:00N 34°40' E 033°04'0 0.0
2018-Feb-22 12:15N 34°40' E 033°04'0 0.0
2018-Feb-22 11:57N 34°40' E 033°04'0 0.0
2018-Feb-22 11:30N 34°40' E 033°04'0 0.0
2018-Feb-22 11:00N 34°40' E 033°04'0 0.0
2018-Feb-22 10:27N 34°40' E 033°04'0 0.0
2018-Feb-22 10:00N 34°40' E 033°04'0 0.0
2018-Feb-22 09:30N 34°40' E 033°04'0 0.0
2018-Feb-22 09:00N 34°40' E 033°04'0 0.0
2018-Feb-22 08:24N 34°40' E 033°04'0 0.0
2018-Feb-22 08:00N 34°40' E 033°04'0 0.0
2018-Feb-22 07:09N 34°40' E 033°04'0 0.0
2018-Feb-22 06:57N 34°40' E 033°04'0 0.0
2018-Feb-22 06:21N 34°40' E 033°04'0 0.0
2018-Feb-22 06:00N 34°40' E 033°04'0 0.0
2018-Feb-22 02:15N 34°40' E 033°04'0 0.0
2018-Feb-22 02:00N 34°40' E 033°04'0 0.0
2018-Feb-22 01:30N 34°40' E 033°04'0 0.0
2018-Feb-22 00:57N 34°40' E 033°04'0 0.0
2018-Feb-22 00:27N 34°40' E 033°04'0 0.0
2018-Feb-21 23:54N 34°40' E 033°04'0 0.0
2018-Feb-21 21:36N 34°40' E 033°04'0 0.0
2018-Feb-21 21:24N 34°40' E 033°04'0 0.0
2018-Feb-21 21:00N 34°40' E 033°04'0 0.0
2018-Feb-21 20:15N 34°40' E 033°04'0 0.0
2018-Feb-21 18:15N 34°40' E 033°04'0 0.1
2018-Feb-21 18:00N 34°40' E 033°04'0 0.0
2018-Feb-21 17:21N 34°40' E 033°04'0 0.0
2018-Feb-21 08:45N 34°40' E 033°04'0 0.1
2018-Feb-21 07:39N 34°40' E 033°04'0 0.1
2018-Feb-21 07:24N 34°40' E 033°04'0 0.0
2018-Feb-21 06:51N 34°40' E 033°04'0 0.0
2018-Feb-20 19:00N 34°40' E 033°04'0 0.0
2018-Feb-20 17:59N 34°40' E 033°04'0 0.0
2018-Feb-20 14:23N 34°40' E 033°04'0 0.0
2018-Feb-20 11:23N 34°40' E 033°04'0 0.0
2018-Feb-20 10:59N 34°40' E 033°04'0 0.0
2018-Feb-20 10:29N 34°40' E 033°04'0 0.0
2018-Feb-20 08:59N 34°40' E 033°04'0 0.0
2018-Feb-20 08:29N 34°40' E 033°04'0 0.0
2018-Feb-20 07:56N 34°40' E 033°04'0 0.0
2018-Feb-20 05:26N 34°40' E 033°04'0 0.0
2018-Feb-20 04:53N 34°40' E 033°04'0 0.0
2018-Feb-19 20:47N 34°40' E 033°04'0 0.0
2018-Feb-19 19:17N 34°40' E 033°04'0 0.0
2018-Feb-19 18:56N 34°40' E 033°04'0 0.0
2018-Feb-19 18:23N 34°40' E 033°04'0 0.0
2018-Feb-19 17:56N 34°40' E 033°04'0 0.1
2018-Feb-19 17:29N 34°40' E 033°04'0 0.0
2018-Feb-19 07:23N 34°40' E 033°04'0 0.0
2018-Feb-19 06:53N 34°40' E 033°04'0 0.0
2018-Feb-19 06:26N 34°40' E 033°04'0 0.0
2018-Feb-19 05:32N 34°40' E 033°04'0 0.1
2018-Feb-19 05:29N 34°40' E 033°04'0 0.0
2018-Feb-19 04:59N 34°40' E 033°04'0 0.0
2018-Feb-19 02:11N 34°40' E 033°04'0 0.0
2018-Feb-19 01:53N 34°40' E 033°04'0 0.0
2018-Feb-19 00:41N 34°40' E 033°04'0 0.1
2018-Feb-19 00:14N 34°40' E 033°04'0 0.0
2018-Feb-18 23:59N 34°40' E 033°04'0 0.0
2018-Feb-18 23:29N 34°40' E 033°04'0 0.0
2018-Feb-18 22:56N 34°40' E 033°04'0 0.0
2018-Feb-18 22:29N 34°40' E 033°04'0 0.0
2018-Feb-18 21:53N 34°40' E 033°04'0 0.1
2018-Feb-18 21:29N 34°40' E 033°04'0 0.0
2018-Feb-18 20:50N 34°40' E 033°04'0 0.0
2018-Feb-18 20:26N 34°40' E 033°04'0 0.0
2018-Feb-18 19:14N 34°40' E 033°04'0 0.0
2018-Feb-18 18:56N 34°40' E 033°04'0 0.1
2018-Feb-18 17:29N 34°40' E 033°04'0 0.0
2018-Feb-18 11:29N 34°40' E 033°04'0 0.0
2018-Feb-18 08:38N 34°40' E 033°04'0 0.6
2018-Feb-18 08:30N 34°40' E 033°04'385 8.6
2018-Feb-16 11:40N 37°27' E 025°56'210.9
2018-Feb-16 11:30N 37°29' E 025°55'510.6
2018-Feb-16 11:00N 37°34' E 025°54'384 8.5
2018-Feb-14 14:01N 43°33' E 028°52'1 8.3
2018-Feb-14 13:55N 43°34' E 028°52'3 8.0
2018-Feb-14 13:30N 43°37' E 028°51'4 8.0
2018-Feb-14 13:00N 43°41' E 028°51'4 7.9
2018-Feb-14 12:30N 43°45' E 028°51'4 7.2
2018-Feb-14 12:00N 43°49' E 028°50'4 7.0
2018-Feb-14 11:30N 43°52' E 028°50'3 6.9
2018-Feb-14 11:00N 43°56' E 028°49'3 7.0
2018-Feb-14 10:30N 43°59' E 028°48'4 7.1
2018-Feb-14 10:00N 44°02' E 028°45'3 6.9
2018-Feb-14 09:30N 44°05' E 028°43'3 5.9
2018-Feb-14 09:00N 44°08' E 028°41'1 2.7
2018-Feb-14 08:28N 44°09' E 028°40'0 0.0
2018-Feb-14 08:00N 44°09' E 028°40'0 0.0
2018-Feb-14 07:29N 44°09' E 028°40'0 0.0
2018-Feb-14 06:59N 44°09' E 028°40'0 0.0
2018-Feb-14 06:29N 44°09' E 028°40'0 0.0
2018-Feb-14 05:59N 44°09' E 028°40'0 0.0
2018-Feb-14 05:29N 44°09' E 028°40'0 0.0
2018-Feb-14 04:59N 44°09' E 028°40'0 0.0
2018-Feb-14 04:29N 44°09' E 028°40'0 0.0
2018-Feb-14 03:59N 44°09' E 028°40'0 0.0
2018-Feb-14 03:26N 44°09' E 028°40'0 0.0
2018-Feb-14 02:59N 44°09' E 028°40'0 0.0
2018-Feb-14 02:29N 44°09' E 028°40'0 0.0
2018-Feb-14 01:59N 44°09' E 028°40'0 0.0
2018-Feb-14 01:29N 44°09' E 028°40'0 0.0
2018-Feb-14 00:56N 44°09' E 028°40'0 0.0
2018-Feb-14 00:29N 44°09' E 028°40'0 0.0
2018-Feb-13 23:59N 44°09' E 028°40'0 0.0
2018-Feb-13 23:29N 44°09' E 028°40'0 0.0
2018-Feb-13 22:59N 44°09' E 028°40'0 0.0
2018-Feb-13 22:29N 44°09' E 028°40'0 0.0
2018-Feb-13 21:59N 44°09' E 028°40'0 0.0
2018-Feb-13 21:29N 44°09' E 028°40'0 0.0
2018-Feb-13 20:59N 44°09' E 028°40'0 0.0
2018-Feb-13 20:29N 44°09' E 028°40'0 0.0
2018-Feb-13 19:59N 44°09' E 028°40'0 0.0
2018-Feb-13 19:29N 44°09' E 028°40'0 0.0
2018-Feb-13 18:59N 44°09' E 028°40'0 0.0
2018-Feb-13 18:29N 44°09' E 028°40'0 0.0
2018-Feb-13 17:59N 44°09' E 028°40'0 0.0
2018-Feb-13 17:29N 44°09' E 028°40'0 0.0
2018-Feb-13 16:59N 44°09' E 028°40'0 0.0
2018-Feb-13 16:29N 44°09' E 028°40'0 0.0
2018-Feb-13 15:59N 44°09' E 028°40'0 0.0
2018-Feb-13 15:29N 44°09' E 028°40'0 0.0
2018-Feb-13 14:59N 44°09' E 028°40'0 0.0
2018-Feb-13 14:29N 44°09' E 028°40'0 0.0
2018-Feb-13 13:59N 44°09' E 028°40'0 0.0
2018-Feb-13 13:29N 44°09' E 028°40'0 0.0
2018-Feb-13 12:59N 44°09' E 028°40'0 0.0
2018-Feb-13 12:29N 44°09' E 028°40'0 0.0
2018-Feb-13 11:56N 44°09' E 028°40'0 0.0
2018-Feb-13 11:29N 44°09' E 028°40'0 0.0
2018-Feb-13 10:59N 44°09' E 028°40'0 0.0
2018-Feb-13 10:29N 44°09' E 028°40'0 0.0
2018-Feb-13 09:59N 44°09' E 028°40'0 0.0
2018-Feb-13 09:29N 44°09' E 028°40'0 0.0
2018-Feb-13 08:59N 44°09' E 028°40'  

Dump ship's entire track history